This is the latest recevied weather packets stored in our database for station/object K6CEG. If no packets are shown the sender has not sent any weather packets the latest 1 day(s).
| Time | Temp. | Humidity | Pressure | Rain* | Wind** | Luminosity | Snow |
|---|---|---|---|---|---|---|---|
| 1778365634 | 27.78° C | 47% | 1013.1 hPa | 0 mm | - | 160 W/m² | - |
| 1778363507 | 28.33° C | 45% | 1013.6 hPa | 0 mm | - | 613 W/m² | - |
| 1778362293 | 28.89° C | 44% | 1014 hPa | 0 mm | - | 649 W/m² | - |
| 1778361991 | 28.89° C | 45% | 1013.9 hPa | 0 mm | - | 123 W/m² | - |
| 1778358351 | 27.78° C | 47% | 1014.2 hPa | 0 mm | - | 718 W/m² | - |
| 1778357742 | 27.78° C | 46% | 1014.6 hPa | 0 mm | - | 727 W/m² | - |
| 1778357139 | 27.78° C | 46% | 1014.6 hPa | 0 mm | - | 714 W/m² | - |
| 1778356532 | 27.78° C | 47% | 1014.3 hPa | 0 mm | - | 720 W/m² | - |
| 1778356232 | 27.78° C | 47% | 1014.6 hPa | 0 mm | - | 739 W/m² | - |
| 1778355625 | 27.22° C | 47% | 1014.5 hPa | 0 mm | - | 753 W/m² | - |
| 1778354718 | 27.22° C | 48% | 1014.7 hPa | 0 mm | - | 731 W/m² | - |
| 1778353804 | 27.78° C | 48% | 1014.8 hPa | 0 mm | - | 744 W/m² | - |
| 1778353501 | 26.67° C | 50% | 1015.1 hPa | 0 mm | - | 714 W/m² | - |
| 1778353199 | 27.22° C | 50% | 1015.2 hPa | 0 mm | - | 719 W/m² | - |
| 1778351378 | 27.22° C | 49% | 1015.4 hPa | 0 mm | - | 767 W/m² | - |
| 1778349862 | 25° C | 54% | 1015.4 hPa | 0 mm | - | 815 W/m² | - |
| 1778349255 | 23.89° C | 56% | 1015.7 hPa | 0 mm | - | 846 W/m² | - |
| 1778348344 | 24.44° C | 55% | 1015.8 hPa | 0 mm | - | 805 W/m² | - |
| 1778347133 | 23.89° C | 58% | 1015.7 hPa | 0 mm | - | 812 W/m² | - |
| 1778346222 | 22.22° C | 60% | 1015.7 hPa | 0 mm | - | 704 W/m² | - |
| 1778345922 | 21.67° C | 63% | 1015.8 hPa | 0 mm | - | 677 W/m² | - |
| 1778345313 | 20° C | 66% | 1015.6 hPa | 0 mm | - | 639 W/m² | - |
| 1778344403 | 20.56° C | 66% | 1015.7 hPa | 0 mm | - | 573 W/m² | - |
| 1778343193 | 17.78° C | 74% | 1015.7 hPa | 0 mm | - | 284 W/m² | - |
* Rain latest hour (hover to see other rain measurements)
** Current wind speed in m/s (hover to see current wind gust speed)